sensor_id;sensor_type;location;lat;lon;timestamp;P1;durP1;ratioP1;P2;durP2;ratioP2
37693;SDS011;23531;50.122;8.644;2022-09-09T02:01:54;4.40;;;1.90;;
37693;SDS011;23531;50.122;8.644;2022-09-09T02:04:08;3.75;;;1.63;;
37693;SDS011;23531;50.122;8.644;2022-09-09T02:06:22;6.20;;;1.73;;
37693;SDS011;23531;50.122;8.644;2022-09-09T02:08:29;5.43;;;2.13;;
37693;SDS011;23531;50.122;8.644;2022-09-09T02:10:40;3.88;;;1.90;;
37693;SDS011;23531;50.122;8.644;2022-09-09T02:14:51;3.65;;;1.55;;
37693;SDS011;23531;50.122;8.644;2022-09-09T02:16:59;6.03;;;1.65;;
37693;SDS011;23531;50.122;8.644;2022-09-09T02:19:06;4.57;;;1.60;;
37693;SDS011;23531;50.122;8.644;2022-09-09T02:21:13;3.40;;;1.65;;
37693;SDS011;23531;50.122;8.644;2022-09-09T02:23:16;2.92;;;1.48;;
37693;SDS011;23531;50.122;8.644;2022-09-09T02:25:20;3.63;;;1.40;;
37693;SDS011;23531;50.122;8.644;2022-09-09T02:27:24;3.75;;;1.92;;
37693;SDS011;23531;50.122;8.644;2022-09-09T02:29:26;4.70;;;1.77;;
37693;SDS011;23531;50.122;8.644;2022-09-09T02:31:31;4.55;;;1.63;;
37693;SDS011;23531;50.122;8.644;2022-09-09T02:33:38;3.97;;;1.98;;
37693;SDS011;23531;50.122;8.644;2022-09-09T02:35:43;3.25;;;1.75;;
37693;SDS011;23531;50.122;8.644;2022-09-09T02:37:47;2.65;;;1.90;;
37693;SDS011;23531;50.122;8.644;2022-09-09T02:39:51;2.83;;;1.55;;
37693;SDS011;23531;50.122;8.644;2022-09-09T02:41:53;3.97;;;2.10;;
37693;SDS011;23531;50.122;8.644;2022-09-09T02:43:54;5.50;;;2.00;;
37693;SDS011;23531;50.122;8.644;2022-09-09T02:45:57;3.85;;;1.83;;
37693;SDS011;23531;50.122;8.644;2022-09-09T02:48:10;3.83;;;2.10;;
37693;SDS011;23531;50.122;8.644;2022-09-09T02:50:22;2.83;;;1.67;;
37693;SDS011;23531;50.122;8.644;2022-09-09T02:54:33;4.95;;;1.95;;
37693;SDS011;23531;50.122;8.644;2022-09-09T02:56:37;4.05;;;1.88;;
37693;SDS011;23531;50.122;8.644;2022-09-09T02:58:42;3.63;;;1.83;;
37693;SDS011;23531;50.122;8.644;2022-09-09T03:00:45;5.43;;;2.50;;
37693;SDS011;23531;50.122;8.644;2022-09-09T03:02:48;3.72;;;1.98;;
37693;SDS011;23531;50.122;8.644;2022-09-09T03:04:49;3.67;;;2.20;;
37693;SDS011;23531;50.122;8.644;2022-09-09T03:06:53;5.53;;;2.25;;
37693;SDS011;23531;50.122;8.644;2022-09-09T03:08:55;4.47;;;1.80;;
37693;SDS011;23531;50.122;8.644;2022-09-09T03:11:00;5.55;;;2.05;;
37693;SDS011;23531;50.122;8.644;2022-09-09T03:13:02;3.75;;;2.08;;
37693;SDS011;23531;50.122;8.644;2022-09-09T03:15:04;4.78;;;2.30;;
37693;SDS011;23531;50.122;8.644;2022-09-09T03:17:07;5.32;;;2.10;;
37693;SDS011;23531;50.122;8.644;2022-09-09T03:19:09;7.05;;;2.45;;
37693;SDS011;23531;50.122;8.644;2022-09-09T03:21:10;4.78;;;2.22;;
37693;SDS011;23531;50.122;8.644;2022-09-09T03:23:13;7.60;;;2.10;;
37693;SDS011;23531;50.122;8.644;2022-09-09T03:25:15;4.10;;;2.75;;
37693;SDS011;23531;50.122;8.644;2022-09-09T03:27:16;4.97;;;2.67;;
37693;SDS011;23531;50.122;8.644;2022-09-09T03:29:19;6.72;;;2.40;;
37693;SDS011;23531;50.122;8.644;2022-09-09T03:31:21;6.00;;;2.40;;
37693;SDS011;23531;50.122;8.644;2022-09-09T03:33:23;3.45;;;2.28;;
37693;SDS011;23531;50.122;8.644;2022-09-09T03:35:24;5.50;;;2.05;;
37693;SDS011;23531;50.122;8.644;2022-09-09T03:37:26;3.72;;;2.25;;
37693;SDS011;23531;50.122;8.644;2022-09-09T03:39:29;3.28;;;2.13;;
37693;SDS011;23531;50.122;8.644;2022-09-09T03:41:30;7.97;;;2.22;;
37693;SDS011;23531;50.122;8.644;2022-09-09T03:43:32;3.88;;;1.90;;
37693;SDS011;23531;50.122;8.644;2022-09-09T03:45:33;4.07;;;2.15;;
37693;SDS011;23531;50.122;8.644;2022-09-09T03:47:35;6.63;;;2.03;;
37693;SDS011;23531;50.122;8.644;2022-09-09T03:49:36;7.85;;;2.00;;
37693;SDS011;23531;50.122;8.644;2022-09-09T03:51:37;2.65;;;2.00;;
37693;SDS011;23531;50.122;8.644;2022-09-09T03:53:40;4.18;;;2.13;;
37693;SDS011;23531;50.122;8.644;2022-09-09T03:55:44;5.10;;;2.33;;
37693;SDS011;23531;50.122;8.644;2022-09-09T03:57:46;7.93;;;2.13;;
37693;SDS011;23531;50.122;8.644;2022-09-09T03:59:47;5.70;;;2.15;;
37693;SDS011;23531;50.122;8.644;2022-09-09T04:01:49;4.80;;;2.00;;
37693;SDS011;23531;50.122;8.644;2022-09-09T04:03:51;5.07;;;1.83;;
37693;SDS011;23531;50.122;8.644;2022-09-09T04:05:52;3.05;;;1.75;;
37693;SDS011;23531;50.122;8.644;2022-09-09T04:07:54;3.70;;;2.00;;
37693;SDS011;23531;50.122;8.644;2022-09-09T04:09:56;6.45;;;2.03;;
37693;SDS011;23531;50.122;8.644;2022-09-09T04:11:58;5.25;;;2.38;;
37693;SDS011;23531;50.122;8.644;2022-09-09T04:14:00;5.82;;;1.95;;
37693;SDS011;23531;50.122;8.644;2022-09-09T04:16:02;6.07;;;2.03;;
37693;SDS011;23531;50.122;8.644;2022-09-09T04:18:04;3.30;;;1.85;;
37693;SDS011;23531;50.122;8.644;2022-09-09T04:20:06;5.65;;;2.13;;
37693;SDS011;23531;50.122;8.644;2022-09-09T04:22:11;5.68;;;2.33;;
37693;SDS011;23531;50.122;8.644;2022-09-09T04:24:12;5.70;;;2.00;;
37693;SDS011;23531;50.122;8.644;2022-09-09T04:26:15;5.57;;;2.33;;
37693;SDS011;23531;50.122;8.644;2022-09-09T04:28:19;4.78;;;2.20;;
37693;SDS011;23531;50.122;8.644;2022-09-09T04:30:21;5.28;;;2.00;;
37693;SDS011;23531;50.122;8.644;2022-09-09T04:32:23;4.43;;;1.73;;
37693;SDS011;23531;50.122;8.644;2022-09-09T04:34:26;9.50;;;4.43;;
37693;SDS011;23531;50.122;8.644;2022-09-09T04:36:28;9.02;;;2.47;;
37693;SDS011;23531;50.122;8.644;2022-09-09T04:38:29;4.50;;;2.35;;
37693;SDS011;23531;50.122;8.644;2022-09-09T04:40:31;3.92;;;1.80;;
37693;SDS011;23531;50.122;8.644;2022-09-09T04:42:34;7.35;;;1.65;;
37693;SDS011;23531;50.122;8.644;2022-09-09T04:44:37;4.63;;;1.98;;
37693;SDS011;23531;50.122;8.644;2022-09-09T04:46:39;6.00;;;2.22;;
37693;SDS011;23531;50.122;8.644;2022-09-09T04:48:41;4.35;;;1.90;;
37693;SDS011;23531;50.122;8.644;2022-09-09T04:50:42;3.33;;;1.90;;
37693;SDS011;23531;50.122;8.644;2022-09-09T04:52:45;4.57;;;1.98;;
37693;SDS011;23531;50.122;8.644;2022-09-09T04:54:46;4.72;;;1.90;;
37693;SDS011;23531;50.122;8.644;2022-09-09T04:56:49;2.03;;;1.63;;
37693;SDS011;23531;50.122;8.644;2022-09-09T04:58:50;5.78;;;1.60;;
37693;SDS011;23531;50.122;8.644;2022-09-09T05:00:53;7.68;;;1.90;;
37693;SDS011;23531;50.122;8.644;2022-09-09T05:02:55;6.28;;;2.40;;
37693;SDS011;23531;50.122;8.644;2022-09-09T05:04:56;6.10;;;2.40;;
37693;SDS011;23531;50.122;8.644;2022-09-09T05:06:58;11.45;;;2.60;;
37693;SDS011;23531;50.122;8.644;2022-09-09T05:08:59;5.15;;;1.77;;
37693;SDS011;23531;50.122;8.644;2022-09-09T05:11:00;5.88;;;1.65;;
37693;SDS011;23531;50.122;8.644;2022-09-09T05:13:02;6.38;;;2.00;;
37693;SDS011;23531;50.122;8.644;2022-09-09T05:15:04;4.10;;;1.77;;
37693;SDS011;23531;50.122;8.644;2022-09-09T05:17:08;6.47;;;2.28;;
37693;SDS011;23531;50.122;8.644;2022-09-09T05:19:09;4.63;;;1.60;;
37693;SDS011;23531;50.122;8.644;2022-09-09T05:21:11;6.57;;;2.10;;
37693;SDS011;23531;50.122;8.644;2022-09-09T05:23:14;5.30;;;1.75;;
37693;SDS011;23531;50.122;8.644;2022-09-09T05:25:16;3.42;;;1.80;;
37693;SDS011;23531;50.122;8.644;2022-09-09T05:27:17;6.20;;;2.10;;
37693;SDS011;23531;50.122;8.644;2022-09-09T05:29:19;3.80;;;1.88;;
37693;SDS011;23531;50.122;8.644;2022-09-09T05:31:20;6.80;;;2.00;;
37693;SDS011;23531;50.122;8.644;2022-09-09T05:33:24;7.00;;;1.85;;
37693;SDS011;23531;50.122;8.644;2022-09-09T05:35:26;5.28;;;1.67;;
37693;SDS011;23531;50.122;8.644;2022-09-09T05:37:28;4.97;;;2.05;;
37693;SDS011;23531;50.122;8.644;2022-09-09T05:39:31;3.92;;;1.58;;
37693;SDS011;23531;50.122;8.644;2022-09-09T05:41:33;6.07;;;1.90;;
37693;SDS011;23531;50.122;8.644;2022-09-09T05:43:35;7.18;;;1.83;;
37693;SDS011;23531;50.122;8.644;2022-09-09T05:45:37;6.35;;;1.60;;
37693;SDS011;23531;50.122;8.644;2022-09-09T05:47:38;6.55;;;1.88;;
37693;SDS011;23531;50.122;8.644;2022-09-09T05:49:41;3.70;;;1.65;;
37693;SDS011;23531;50.122;8.644;2022-09-09T05:51:42;5.95;;;3.90;;
37693;SDS011;23531;50.122;8.644;2022-09-09T05:53:44;7.28;;;2.22;;
37693;SDS011;23531;50.122;8.644;2022-09-09T05:55:46;3.25;;;2.33;;
37693;SDS011;23531;50.122;8.644;2022-09-09T05:57:48;7.55;;;1.80;;
37693;SDS011;23531;50.122;8.644;2022-09-09T05:59:51;7.57;;;3.50;;
37693;SDS011;23531;50.122;8.644;2022-09-09T06:01:53;7.07;;;2.47;;
37693;SDS011;23531;50.122;8.644;2022-09-09T06:03:55;5.65;;;2.75;;
37693;SDS011;23531;50.122;8.644;2022-09-09T06:05:58;7.72;;;3.85;;
37693;SDS011;23531;50.122;8.644;2022-09-09T06:08:00;8.20;;;2.63;;
37693;SDS011;23531;50.122;8.644;2022-09-09T06:10:02;10.73;;;4.93;;
37693;SDS011;23531;50.122;8.644;2022-09-09T06:12:04;9.65;;;4.70;;
37693;SDS011;23531;50.122;8.644;2022-09-09T06:14:06;9.70;;;5.97;;
37693;SDS011;23531;50.122;8.644;2022-09-09T06:16:08;8.52;;;3.50;;
37693;SDS011;23531;50.122;8.644;2022-09-09T06:18:12;7.05;;;2.72;;
37693;SDS011;23531;50.122;8.644;2022-09-09T06:20:13;9.60;;;6.82;;
37693;SDS011;23531;50.122;8.644;2022-09-09T06:22:16;4.03;;;1.45;;
37693;SDS011;23531;50.122;8.644;2022-09-09T06:24:17;3.83;;;1.70;;
37693;SDS011;23531;50.122;8.644;2022-09-09T06:26:20;5.65;;;1.45;;
37693;SDS011;23531;50.122;8.644;2022-09-09T06:28:24;4.53;;;1.63;;
37693;SDS011;23531;50.122;8.644;2022-09-09T06:30:25;3.13;;;1.45;;
37693;SDS011;23531;50.122;8.644;2022-09-09T06:32:26;3.60;;;2.13;;
37693;SDS011;23531;50.122;8.644;2022-09-09T06:34:29;4.57;;;1.38;;
37693;SDS011;23531;50.122;8.644;2022-09-09T06:36:31;6.63;;;1.40;;
37693;SDS011;23531;50.122;8.644;2022-09-09T06:38:34;4.80;;;1.52;;
37693;SDS011;23531;50.122;8.644;2022-09-09T06:40:35;7.45;;;1.45;;
37693;SDS011;23531;50.122;8.644;2022-09-09T06:42:37;8.80;;;1.98;;
37693;SDS011;23531;50.122;8.644;2022-09-09T06:44:39;3.95;;;1.42;;
37693;SDS011;23531;50.122;8.644;2022-09-09T06:46:41;5.30;;;1.33;;
37693;SDS011;23531;50.122;8.644;2022-09-09T06:48:43;7.50;;;1.70;;
37693;SDS011;23531;50.122;8.644;2022-09-09T06:50:45;8.52;;;1.60;;
37693;SDS011;23531;50.122;8.644;2022-09-09T06:52:47;6.03;;;1.77;;
37693;SDS011;23531;50.122;8.644;2022-09-09T06:54:50;4.53;;;1.48;;
37693;SDS011;23531;50.122;8.644;2022-09-09T06:56:51;6.10;;;1.95;;
37693;SDS011;23531;50.122;8.644;2022-09-09T06:58:52;3.75;;;1.30;;
37693;SDS011;23531;50.122;8.644;2022-09-09T07:01:01;4.38;;;1.33;;
37693;SDS011;23531;50.122;8.644;2022-09-09T07:03:03;3.35;;;1.63;;
37693;SDS011;23531;50.122;8.644;2022-09-09T07:05:05;3.38;;;1.50;;
37693;SDS011;23531;50.122;8.644;2022-09-09T07:07:08;5.93;;;1.60;;
37693;SDS011;23531;50.122;8.644;2022-09-09T07:09:12;3.80;;;1.40;;
37693;SDS011;23531;50.122;8.644;2022-09-09T07:11:17;4.80;;;1.50;;
37693;SDS011;23531;50.122;8.644;2022-09-09T07:13:23;2.42;;;1.30;;
37693;SDS011;23531;50.122;8.644;2022-09-09T07:15:25;6.72;;;1.85;;
37693;SDS011;23531;50.122;8.644;2022-09-09T07:17:26;4.30;;;1.40;;
37693;SDS011;23531;50.122;8.644;2022-09-09T07:19:28;5.28;;;1.60;;
37693;SDS011;23531;50.122;8.644;2022-09-09T07:21:30;7.82;;;2.55;;
37693;SDS011;23531;50.122;8.644;2022-09-09T07:23:32;2.50;;;1.40;;
37693;SDS011;23531;50.122;8.644;2022-09-09T07:25:35;5.50;;;1.42;;
37693;SDS011;23531;50.122;8.644;2022-09-09T07:27:38;4.88;;;1.33;;
37693;SDS011;23531;50.122;8.644;2022-09-09T07:29:40;7.30;;;1.75;;
37693;SDS011;23531;50.122;8.644;2022-09-09T07:31:42;3.08;;;1.30;;
37693;SDS011;23531;50.122;8.644;2022-09-09T07:33:43;4.55;;;1.70;;
37693;SDS011;23531;50.122;8.644;2022-09-09T07:35:45;4.30;;;1.90;;
37693;SDS011;23531;50.122;8.644;2022-09-09T07:37:47;5.72;;;1.83;;
37693;SDS011;23531;50.122;8.644;2022-09-09T07:39:48;5.18;;;2.08;;
37693;SDS011;23531;50.122;8.644;2022-09-09T07:41:51;5.68;;;1.73;;
37693;SDS011;23531;50.122;8.644;2022-09-09T07:43:55;4.95;;;1.42;;
37693;SDS011;23531;50.122;8.644;2022-09-09T07:45:58;4.20;;;1.40;;
37693;SDS011;23531;50.122;8.644;2022-09-09T07:48:00;6.20;;;2.10;;
37693;SDS011;23531;50.122;8.644;2022-09-09T07:50:01;5.93;;;1.85;;
37693;SDS011;23531;50.122;8.644;2022-09-09T07:52:03;5.00;;;1.50;;
37693;SDS011;23531;50.122;8.644;2022-09-09T07:54:05;5.35;;;1.50;;
37693;SDS011;23531;50.122;8.644;2022-09-09T07:56:09;5.70;;;1.35;;
37693;SDS011;23531;50.122;8.644;2022-09-09T07:58:11;5.50;;;1.33;;
37693;SDS011;23531;50.122;8.644;2022-09-09T08:00:14;2.80;;;1.33;;
37693;SDS011;23531;50.122;8.644;2022-09-09T08:02:16;3.72;;;1.95;;
37693;SDS011;23531;50.122;8.644;2022-09-09T08:04:17;5.55;;;1.50;;
37693;SDS011;23531;50.122;8.644;2022-09-09T08:06:20;4.63;;;1.60;;
37693;SDS011;23531;50.122;8.644;2022-09-09T08:08:22;5.53;;;1.65;;
37693;SDS011;23531;50.122;8.644;2022-09-09T08:10:23;3.53;;;1.48;;
37693;SDS011;23531;50.122;8.644;2022-09-09T08:12:25;3.40;;;1.13;;
37693;SDS011;23531;50.122;8.644;2022-09-09T08:14:27;4.53;;;1.58;;
37693;SDS011;23531;50.122;8.644;2022-09-09T08:16:31;7.63;;;2.20;;
37693;SDS011;23531;50.122;8.644;2022-09-09T08:18:36;7.72;;;1.98;;
37693;SDS011;23531;50.122;8.644;2022-09-09T08:20:39;9.50;;;2.50;;
37693;SDS011;23531;50.122;8.644;2022-09-09T08:22:40;4.82;;;1.42;;
37693;SDS011;23531;50.122;8.644;2022-09-09T08:24:42;6.22;;;1.92;;
37693;SDS011;23531;50.122;8.644;2022-09-09T08:26:44;9.88;;;2.30;;
37693;SDS011;23531;50.122;8.644;2022-09-09T08:28:47;4.03;;;1.80;;
37693;SDS011;23531;50.122;8.644;2022-09-09T08:30:50;4.45;;;1.55;;
37693;SDS011;23531;50.122;8.644;2022-09-09T08:32:54;6.10;;;1.65;;
37693;SDS011;23531;50.122;8.644;2022-09-09T08:34:57;6.28;;;2.15;;
37693;SDS011;23531;50.122;8.644;2022-09-09T08:36:59;4.32;;;1.77;;
37693;SDS011;23531;50.122;8.644;2022-09-09T08:39:00;4.20;;;1.50;;
37693;SDS011;23531;50.122;8.644;2022-09-09T08:41:07;5.93;;;1.50;;
37693;SDS011;23531;50.122;8.644;2022-09-09T08:43:24;4.60;;;1.80;;
37693;SDS011;23531;50.122;8.644;2022-09-09T08:45:29;5.78;;;1.73;;
37693;SDS011;23531;50.122;8.644;2022-09-09T08:47:38;6.57;;;2.25;;
37693;SDS011;23531;50.122;8.644;2022-09-09T08:50:02;6.63;;;2.15;;
37693;SDS011;23531;50.122;8.644;2022-09-09T08:52:16;5.50;;;1.80;;
37693;SDS011;23531;50.122;8.644;2022-09-09T08:54:20;4.68;;;1.92;;
37693;SDS011;23531;50.122;8.644;2022-09-09T08:56:23;6.97;;;2.10;;
37693;SDS011;23531;50.122;8.644;2022-09-09T08:58:27;7.13;;;1.88;;
37693;SDS011;23531;50.122;8.644;2022-09-09T09:00:33;7.78;;;2.33;;
37693;SDS011;23531;50.122;8.644;2022-09-09T09:02:45;6.65;;;2.28;;
37693;SDS011;23531;50.122;8.644;2022-09-09T09:04:57;9.85;;;3.80;;
37693;SDS011;23531;50.122;8.644;2022-09-09T09:07:09;7.22;;;2.95;;
37693;SDS011;23531;50.122;8.644;2022-09-09T09:09:21;8.85;;;3.33;;
37693;SDS011;23531;50.122;8.644;2022-09-09T09:11:27;6.13;;;2.50;;
37693;SDS011;23531;50.122;8.644;2022-09-09T09:13:38;5.88;;;1.92;;
37693;SDS011;23531;50.122;8.644;2022-09-09T09:15:45;4.43;;;1.50;;
37693;SDS011;23531;50.122;8.644;2022-09-09T09:17:49;8.98;;;2.25;;
37693;SDS011;23531;50.122;8.644;2022-09-09T09:19:51;5.88;;;1.65;;
37693;SDS011;23531;50.122;8.644;2022-09-09T09:21:54;5.35;;;1.60;;
37693;SDS011;23531;50.122;8.644;2022-09-09T09:24:04;5.07;;;2.08;;
37693;SDS011;23531;50.122;8.644;2022-09-09T09:26:15;5.65;;;2.20;;
37693;SDS011;23531;50.122;8.644;2022-09-09T09:28:17;7.85;;;2.22;;
37693;SDS011;23531;50.122;8.644;2022-09-09T09:30:21;6.35;;;2.00;;
37693;SDS011;23531;50.122;8.644;2022-09-09T09:32:26;3.45;;;1.55;;
37693;SDS011;23531;50.122;8.644;2022-09-09T09:34:32;6.10;;;2.00;;
37693;SDS011;23531;50.122;8.644;2022-09-09T09:36:34;5.75;;;1.80;;
37693;SDS011;23531;50.122;8.644;2022-09-09T09:38:39;5.57;;;1.40;;
37693;SDS011;23531;50.122;8.644;2022-09-09T09:40:49;3.67;;;1.52;;
37693;SDS011;23531;50.122;8.644;2022-09-09T09:42:52;5.03;;;1.50;;
37693;SDS011;23531;50.122;8.644;2022-09-09T09:44:55;4.68;;;1.70;;
37693;SDS011;23531;50.122;8.644;2022-09-09T09:47:05;3.72;;;1.30;;
37693;SDS011;23531;50.122;8.644;2022-09-09T09:49:08;5.93;;;1.70;;
37693;SDS011;23531;50.122;8.644;2022-09-09T09:51:12;8.18;;;2.05;;
37693;SDS011;23531;50.122;8.644;2022-09-09T09:53:17;5.05;;;1.73;;
37693;SDS011;23531;50.122;8.644;2022-09-09T09:55:22;7.75;;;1.67;;
37693;SDS011;23531;50.122;8.644;2022-09-09T09:57:25;8.43;;;2.00;;
37693;SDS011;23531;50.122;8.644;2022-09-09T09:59:33;4.47;;;1.50;;
37693;SDS011;23531;50.122;8.644;2022-09-09T10:01:35;5.50;;;2.25;;
37693;SDS011;23531;50.122;8.644;2022-09-09T10:03:37;4.95;;;2.05;;
37693;SDS011;23531;50.122;8.644;2022-09-09T10:05:44;4.60;;;1.80;;
37693;SDS011;23531;50.122;8.644;2022-09-09T10:07:47;5.70;;;1.67;;
37693;SDS011;23531;50.122;8.644;2022-09-09T10:10:02;6.47;;;2.08;;
37693;SDS011;23531;50.122;8.644;2022-09-09T10:12:05;8.82;;;2.28;;
37693;SDS011;23531;50.122;8.644;2022-09-09T10:14:19;10.77;;;2.25;;
37693;SDS011;23531;50.122;8.644;2022-09-09T10:16:29;6.75;;;2.40;;
37693;SDS011;23531;50.122;8.644;2022-09-09T10:18:45;5.57;;;1.60;;
37693;SDS011;23531;50.122;8.644;2022-09-09T10:20:57;6.72;;;1.75;;
37693;SDS011;23531;50.122;8.644;2022-09-09T10:23:08;6.70;;;1.67;;
37693;SDS011;23531;50.122;8.644;2022-09-09T10:25:31;4.73;;;2.07;;
37693;SDS011;23531;50.122;8.644;2022-09-09T10:27:48;4.00;;;1.60;;
37693;SDS011;23531;50.122;8.644;2022-09-09T10:30:06;8.82;;;1.98;;
37693;SDS011;23531;50.122;8.644;2022-09-09T10:32:28;7.93;;;2.95;;
37693;SDS011;23531;50.122;8.644;2022-09-09T10:34:51;7.82;;;1.90;;
37693;SDS011;23531;50.122;8.644;2022-09-09T10:36:56;10.48;;;1.67;;
37693;SDS011;23531;50.122;8.644;2022-09-09T10:38:59;5.65;;;1.90;;
37693;SDS011;23531;50.122;8.644;2022-09-09T10:41:13;5.88;;;1.50;;
37693;SDS011;23531;50.122;8.644;2022-09-09T10:43:22;5.30;;;1.30;;
37693;SDS011;23531;50.122;8.644;2022-09-09T10:45:32;7.95;;;1.55;;
37693;SDS011;23531;50.122;8.644;2022-09-09T10:50:20;6.90;;;2.88;;
37693;SDS011;23531;50.122;8.644;2022-09-09T10:52:43;8.18;;;2.67;;
37693;SDS011;23531;50.122;8.644;2022-09-09T10:54:55;7.90;;;2.80;;
37693;SDS011;23531;50.122;8.644;2022-09-09T10:57:02;16.25;;;4.97;;
37693;SDS011;23531;50.122;8.644;2022-09-09T10:59:09;14.02;;;3.35;;
37693;SDS011;23531;50.122;8.644;2022-09-09T11:01:18;9.93;;;2.45;;
37693;SDS011;23531;50.122;8.644;2022-09-09T11:03:24;7.25;;;2.35;;
37693;SDS011;23531;50.122;8.644;2022-09-09T11:05:28;7.78;;;2.15;;
37693;SDS011;23531;50.122;8.644;2022-09-09T11:07:37;8.18;;;3.67;;
37693;SDS011;23531;50.122;8.644;2022-09-09T11:09:44;8.07;;;1.52;;
37693;SDS011;23531;50.122;8.644;2022-09-09T11:11:52;4.93;;;1.52;;
37693;SDS011;23531;50.122;8.644;2022-09-09T11:13:55;4.28;;;1.45;;
37693;SDS011;23531;50.122;8.644;2022-09-09T11:16:04;4.95;;;1.45;;
37693;SDS011;23531;50.122;8.644;2022-09-09T11:18:18;3.28;;;1.50;;
37693;SDS011;23531;50.122;8.644;2022-09-09T11:20:21;4.72;;;1.17;;
37693;SDS011;23531;50.122;8.644;2022-09-09T11:22:26;8.75;;;1.85;;
37693;SDS011;23531;50.122;8.644;2022-09-09T11:24:33;5.03;;;1.52;;
37693;SDS011;23531;50.122;8.644;2022-09-09T11:26:42;5.22;;;1.80;;
37693;SDS011;23531;50.122;8.644;2022-09-09T11:28:51;4.40;;;1.35;;
37693;SDS011;23531;50.122;8.644;2022-09-09T11:33:39;4.57;;;1.43;;
37693;SDS011;23531;50.122;8.644;2022-09-09T11:36:02;3.65;;;1.40;;
37693;SDS011;23531;50.122;8.644;2022-09-09T11:38:41;3.92;;;1.60;;
37693;SDS011;23531;50.122;8.644;2022-09-09T11:40:46;5.25;;;1.45;;
37693;SDS011;23531;50.122;8.644;2022-09-09T11:43:01;3.47;;;1.15;;
37693;SDS011;23531;50.122;8.644;2022-09-09T11:45:08;5.50;;;1.67;;
37693;SDS011;23531;50.122;8.644;2022-09-09T11:47:16;6.53;;;1.75;;
37693;SDS011;23531;50.122;8.644;2022-09-09T11:49:26;3.75;;;1.77;;
37693;SDS011;23531;50.122;8.644;2022-09-09T11:51:31;5.43;;;1.50;;
37693;SDS011;23531;50.122;8.644;2022-09-09T11:53:35;3.88;;;1.60;;
37693;SDS011;23531;50.122;8.644;2022-09-09T11:56:02;4.78;;;1.48;;
37693;SDS011;23531;50.122;8.644;2022-09-09T11:58:06;6.13;;;1.88;;
37693;SDS011;23531;50.122;8.644;2022-09-09T12:00:33;5.90;;;1.77;;
37693;SDS011;23531;50.122;8.644;2022-09-09T12:02:37;4.75;;;1.58;;
37693;SDS011;23531;50.122;8.644;2022-09-09T12:04:54;3.13;;;1.83;;
37693;SDS011;23531;50.122;8.644;2022-09-09T12:07:00;6.22;;;1.50;;
37693;SDS011;23531;50.122;8.644;2022-09-09T12:09:05;6.18;;;1.88;;
37693;SDS011;23531;50.122;8.644;2022-09-09T12:11:10;3.13;;;1.10;;
37693;SDS011;23531;50.122;8.644;2022-09-09T12:13:16;3.65;;;1.05;;
37693;SDS011;23531;50.122;8.644;2022-09-09T12:15:20;3.47;;;1.20;;
37693;SDS011;23531;50.122;8.644;2022-09-09T12:17:29;3.17;;;1.38;;
37693;SDS011;23531;50.122;8.644;2022-09-09T12:19:33;2.97;;;1.10;;
37693;SDS011;23531;50.122;8.644;2022-09-09T12:21:36;3.63;;;1.30;;
37693;SDS011;23531;50.122;8.644;2022-09-09T12:23:45;3.45;;;1.42;;
37693;SDS011;23531;50.122;8.644;2022-09-09T12:28:24;4.75;;;1.63;;
37693;SDS011;23531;50.122;8.644;2022-09-09T12:30:34;5.88;;;1.30;;
37693;SDS011;23531;50.122;8.644;2022-09-09T12:32:43;3.92;;;1.30;;
37693;SDS011;23531;50.122;8.644;2022-09-09T12:34:46;4.53;;;1.73;;
37693;SDS011;23531;50.122;8.644;2022-09-09T12:36:53;4.35;;;1.25;;
37693;SDS011;23531;50.122;8.644;2022-09-09T12:39:09;3.40;;;1.20;;
37693;SDS011;23531;50.122;8.644;2022-09-09T12:41:20;3.70;;;1.10;;
37693;SDS011;23531;50.122;8.644;2022-09-09T12:43:23;5.60;;;1.20;;
37693;SDS011;23531;50.122;8.644;2022-09-09T12:45:28;6.47;;;1.70;;
37693;SDS011;23531;50.122;8.644;2022-09-09T12:47:35;4.40;;;1.08;;
37693;SDS011;23531;50.122;8.644;2022-09-09T12:49:41;3.92;;;1.13;;
37693;SDS011;23531;50.122;8.644;2022-09-09T12:51:43;5.50;;;1.30;;
37693;SDS011;23531;50.122;8.644;2022-09-09T12:53:46;7.07;;;1.10;;
37693;SDS011;23531;50.122;8.644;2022-09-09T12:55:49;2.92;;;0.82;;
37693;SDS011;23531;50.122;8.644;2022-09-09T12:57:52;4.85;;;1.00;;
37693;SDS011;23531;50.122;8.644;2022-09-09T13:00:03;3.15;;;0.90;;
37693;SDS011;23531;50.122;8.644;2022-09-09T13:02:15;3.33;;;1.50;;
37693;SDS011;23531;50.122;8.644;2022-09-09T13:04:20;2.05;;;0.80;;
37693;SDS011;23531;50.122;8.644;2022-09-09T13:06:23;4.50;;;1.27;;
37693;SDS011;23531;50.122;8.644;2022-09-09T13:08:25;6.45;;;1.60;;
37693;SDS011;23531;50.122;8.644;2022-09-09T13:10:29;3.53;;;1.10;;
37693;SDS011;23531;50.122;8.644;2022-09-09T13:12:34;4.10;;;1.20;;
37693;SDS011;23531;50.122;8.644;2022-09-09T13:14:35;4.30;;;1.08;;
37693;SDS011;23531;50.122;8.644;2022-09-09T13:16:38;3.13;;;1.08;;
37693;SDS011;23531;50.122;8.644;2022-09-09T13:18:40;5.00;;;1.25;;
37693;SDS011;23531;50.122;8.644;2022-09-09T13:20:45;4.97;;;1.20;;
37693;SDS011;23531;50.122;8.644;2022-09-09T13:22:47;3.88;;;1.30;;
37693;SDS011;23531;50.122;8.644;2022-09-09T13:25:03;4.13;;;1.30;;
37693;SDS011;23531;50.122;8.644;2022-09-09T13:27:19;6.30;;;1.20;;
37693;SDS011;23531;50.122;8.644;2022-09-09T13:29:28;7.43;;;1.40;;
37693;SDS011;23531;50.122;8.644;2022-09-09T13:31:32;3.40;;;1.20;;
37693;SDS011;23531;50.122;8.644;2022-09-09T13:33:37;2.92;;;1.05;;
37693;SDS011;23531;50.122;8.644;2022-09-09T13:35:45;3.47;;;1.10;;
37693;SDS011;23531;50.122;8.644;2022-09-09T13:37:49;3.22;;;0.85;;
37693;SDS011;23531;50.122;8.644;2022-09-09T13:39:51;2.70;;;0.77;;
37693;SDS011;23531;50.122;8.644;2022-09-09T13:41:53;2.67;;;0.90;;
37693;SDS011;23531;50.122;8.644;2022-09-09T13:43:56;3.08;;;0.65;;
37693;SDS011;23531;50.122;8.644;2022-09-09T13:45:58;1.75;;;0.60;;
37693;SDS011;23531;50.122;8.644;2022-09-09T13:48:08;2.25;;;0.80;;
37693;SDS011;23531;50.122;8.644;2022-09-09T13:50:18;1.13;;;0.60;;
37693;SDS011;23531;50.122;8.644;2022-09-09T13:52:21;3.22;;;0.60;;
37693;SDS011;23531;50.122;8.644;2022-09-09T13:54:22;1.98;;;0.70;;
37693;SDS011;23531;50.122;8.644;2022-09-09T13:56:24;2.08;;;0.70;;
37693;SDS011;23531;50.122;8.644;2022-09-09T13:58:26;0.88;;;0.60;;
37693;SDS011;23531;50.122;8.644;2022-09-09T14:00:30;2.90;;;0.60;;
37693;SDS011;23531;50.122;8.644;2022-09-09T14:02:32;1.90;;;0.47;;
37693;SDS011;23531;50.122;8.644;2022-09-09T14:04:34;0.77;;;0.60;;
37693;SDS011;23531;50.122;8.644;2022-09-09T14:06:36;0.85;;;0.47;;
37693;SDS011;23531;50.122;8.644;2022-09-09T14:08:38;1.52;;;0.50;;
37693;SDS011;23531;50.122;8.644;2022-09-09T14:10:40;2.33;;;0.60;;
37693;SDS011;23531;50.122;8.644;2022-09-09T14:12:41;1.55;;;0.40;;
37693;SDS011;23531;50.122;8.644;2022-09-09T14:14:42;1.35;;;0.43;;
37693;SDS011;23531;50.122;8.644;2022-09-09T14:16:45;3.33;;;0.55;;
37693;SDS011;23531;50.122;8.644;2022-09-09T14:18:47;0.63;;;0.55;;
37693;SDS011;23531;50.122;8.644;2022-09-09T14:20:49;2.25;;;0.60;;
37693;SDS011;23531;50.122;8.644;2022-09-09T14:22:51;1.10;;;0.50;;
37693;SDS011;23531;50.122;8.644;2022-09-09T14:24:53;0.98;;;0.45;;
37693;SDS011;23531;50.122;8.644;2022-09-09T14:26:54;2.63;;;0.60;;
37693;SDS011;23531;50.122;8.644;2022-09-09T14:28:56;2.08;;;0.80;;
37693;SDS011;23531;50.122;8.644;2022-09-09T14:30:58;0.40;;;0.40;;
37693;SDS011;23531;50.122;8.644;2022-09-09T14:33:02;1.88;;;0.70;;
37693;SDS011;23531;50.122;8.644;2022-09-09T14:35:04;2.35;;;0.88;;
37693;SDS011;23531;50.122;8.644;2022-09-09T14:37:05;2.10;;;0.70;;
37693;SDS011;23531;50.122;8.644;2022-09-09T14:39:07;2.50;;;0.55;;
37693;SDS011;23531;50.122;8.644;2022-09-09T14:41:09;3.65;;;0.80;;
37693;SDS011;23531;50.122;8.644;2022-09-09T14:43:11;1.00;;;0.60;;
37693;SDS011;23531;50.122;8.644;2022-09-09T14:45:14;2.30;;;0.60;;